Time;durP1;ratioP1;P1;durP2;ratioP2;P2;SDS_P1;SDS_P2;PMS_P1;PMS_P2;Temp;Humidity;BMP_temperature;BMP_pressure;BME280_temperature;BME280_humidity;BME280_pressure;Samples;Min_cycle;Max_cycle;Signal;HPM_P1;HPM_P2
2022/10/06 00:02:28;;;;;;;2.70;2.10;;;;;;;21.07;42.53;101981.33;1690567;84;21060;-76
2022/10/06 00:04:55;;;;;;;3.92;2.58;;;;;;;21.08;42.53;101983.55;1716599;83;21099;-76
2022/10/06 00:07:21;;;;;;;3.72;2.08;;;;;;;21.07;42.53;101978.56;1686985;83;21167;-76
2022/10/06 00:09:48;;;;;;;5.45;2.55;;;;;;;21.08;42.53;101978.01;1716911;83;21055;-76
2022/10/06 00:12:14;;;;;;;2.92;2.20;;;;;;;21.08;42.54;101980.78;1705498;83;21053;-76
2022/10/06 00:14:40;;;;;;;3.37;2.20;;;;;;;21.07;42.53;101980.50;1704319;84;21080;-76
2022/10/06 00:17:07;;;;;;;4.58;2.30;;;;;;;21.08;42.52;101981.61;1704979;83;21049;-76
2022/10/06 00:19:33;;;;;;;3.80;2.20;;;;;;;21.07;42.51;101969.44;1704954;83;21253;-76
2022/10/06 00:21:59;;;;;;;2.85;2.20;;;;;;;21.06;42.50;101965.02;1703212;83;21423;-77
2022/10/06 00:24:26;;;;;;;3.98;2.30;;;;;;;21.07;42.51;101960.58;1704869;84;21347;-76
2022/10/06 00:26:52;;;;;;;3.58;2.47;;;;;;;21.07;42.51;101962.52;1704945;83;21069;-76
2022/10/06 00:29:18;;;;;;;3.40;2.10;;;;;;;21.05;42.48;101955.87;1704682;83;21511;-75
2022/10/06 00:31:45;;;;;;;3.80;2.30;;;;;;;21.06;42.49;101956.16;1705140;84;21171;-75
2022/10/06 00:34:11;;;;;;;4.47;2.50;;;;;;;21.06;42.50;101952.56;1703138;83;21111;-75
2022/10/06 00:36:38;;;;;;;3.50;2.20;;;;;;;21.06;42.50;101956.71;1704851;83;21068;-75
2022/10/06 00:39:05;;;;;;;3.47;2.15;;;;;;;21.06;42.50;101952.56;1705195;83;21075;-75
2022/10/06 00:41:31;;;;;;;2.80;2.12;;;;;;;21.06;42.50;101951.17;1704794;83;21080;-75
2022/10/06 00:44:01;;;;;;;4.87;2.50;;;;;;;21.06;42.50;101953.94;1704745;84;21185;-75
2022/10/06 00:46:44;;;;;;;4.28;2.60;;;;;;;21.05;42.50;101951.73;1705073;84;21187;-76
2022/10/06 00:49:27;;;;;;;3.77;1.92;;;;;;;21.05;42.49;101945.40;1704509;84;21041;-75
2022/10/06 00:51:57;;;;;;;4.53;2.30;;;;;;;21.05;42.47;101954.50;1705370;83;21689;-75
2022/10/06 00:54:23;;;;;;;3.70;2.40;;;;;;;21.04;42.47;101945.13;1704252;83;21052;-75
2022/10/06 00:56:50;;;;;;;3.90;2.08;;;;;;;21.04;42.47;101945.95;1680993;83;21148;-76
2022/10/06 00:59:17;;;;;;;4.22;2.37;;;;;;;21.04;42.47;101940.98;1704908;83;21646;-76
2022/10/06 01:02:03;;;;;;;4.10;2.20;;;;;;;21.04;42.48;101938.21;1704484;84;21136;-75
2022/10/06 01:04:32;;;;;;;4.22;2.20;;;;;;;21.03;42.48;101938.77;1704776;84;21543;-75
2022/10/06 01:06:58;;;;;;;3.67;2.45;;;;;;;21.03;42.47;101928.25;1704728;83;21550;-75
2022/10/06 01:09:25;;;;;;;3.00;2.17;;;;;;;21.03;42.47;101921.34;1704638;83;21085;-76
2022/10/06 01:11:53;;;;;;;3.70;2.40;;;;;;;21.04;42.48;101924.38;1703989;83;22257;-75
2022/10/06 01:14:19;;;;;;;3.25;2.33;;;;;;;21.02;42.47;101919.13;1704813;83;21607;-76
2022/10/06 01:16:50;;;;;;;3.67;2.40;;;;;;;21.03;42.47;101920.78;1714472;83;21183;-75
2022/10/06 01:19:31;;;;;;;3.87;2.15;;;;;;;21.03;42.44;101918.57;1714505;83;21614;-75
2022/10/06 01:22:04;;;;;;;3.75;2.25;;;;;;;21.04;42.44;101916.08;1714714;83;21878;-75
2022/10/06 01:24:31;;;;;;;4.80;2.35;;;;;;;21.02;42.44;101912.20;1697951;83;21112;-76
2022/10/06 01:26:57;;;;;;;3.45;2.20;;;;;;;21.03;42.44;101921.34;1683700;83;21131;-75
2022/10/06 01:29:24;;;;;;;3.17;2.20;;;;;;;21.02;42.44;101911.37;1715080;83;21036;-76
2022/10/06 01:31:50;;;;;;;3.55;2.33;;;;;;;21.02;42.43;101914.97;1715340;83;21083;-76
2022/10/06 01:34:17;;;;;;;3.72;2.00;;;;;;;21.01;42.43;101913.31;1697193;83;21302;-76
2022/10/06 01:36:49;;;;;;;4.12;2.02;;;;;;;21.01;42.42;101913.88;1655177;86;21073;-76
2022/10/06 01:39:15;;;;;;;3.05;2.37;;;;;;;21.02;42.43;101914.14;1656747;85;21587;-75
2022/10/06 01:41:41;;;;;;;2.98;2.02;;;;;;;21.02;42.41;101909.44;1715685;83;21115;-75
2022/10/06 01:44:08;;;;;;;5.42;2.37;;;;;;;21.03;42.42;101910.27;1655485;86;21093;-75
2022/10/06 01:46:34;;;;;;;4.58;2.08;;;;;;;21.02;42.42;101905.84;1657105;85;21140;-75
2022/10/06 01:49:00;;;;;;;3.27;2.10;;;;;;;21.02;42.42;101909.99;1715581;83;21641;-75
2022/10/06 01:51:27;;;;;;;3.47;2.05;;;;;;;21.01;42.43;101913.31;1631711;86;21059;-77
2022/10/06 01:53:53;;;;;;;3.35;2.50;;;;;;;21.01;42.42;101913.31;1691073;84;21092;-75
2022/10/06 01:56:20;;;;;;;3.60;2.33;;;;;;;21.01;42.39;101915.25;1684296;84;21176;-76
2022/10/06 01:58:46;;;;;;;3.67;2.20;;;;;;;21.02;42.41;101919.67;1638768;84;21599;-75
2022/10/06 02:01:12;;;;;;;3.60;2.20;;;;;;;21.03;42.37;101919.95;1690827;84;21049;-76
2022/10/06 02:03:39;;;;;;;4.08;2.17;;;;;;;21.01;42.38;101916.09;1691124;84;21105;-75
2022/10/06 02:06:05;;;;;;;3.72;2.35;;;;;;;21.01;42.38;101913.88;1690990;84;21105;-76
2022/10/06 02:08:32;;;;;;;4.75;2.50;;;;;;;21.01;42.38;101914.70;1691107;84;21553;-75
2022/10/06 02:11:08;;;;;;;2.70;1.98;;;;;;;21.02;42.40;101908.61;1662658;84;21351;-76
2022/10/06 02:13:36;;;;;;;2.95;2.02;;;;;;;21.02;42.37;101914.14;1722223;83;21071;-75
2022/10/06 02:16:05;;;;;;;4.10;2.60;;;;;;;21.01;42.35;101908.34;1723074;83;21088;-75
2022/10/06 02:18:30;;;;;;;2.87;1.98;;;;;;;21.00;42.34;101911.69;1723073;81;21052;-75
2022/10/06 02:20:57;;;;;;;3.20;2.30;;;;;;;21.02;42.29;101909.99;1722974;83;21048;-75
2022/10/06 02:23:23;;;;;;;4.55;2.67;;;;;;;21.01;42.28;101918.85;1723372;83;22156;-75
2022/10/06 02:25:49;;;;;;;3.70;2.20;;;;;;;21.01;42.25;101918.85;1692933;83;21076;-75
2022/10/06 02:28:15;;;;;;;4.65;2.20;;;;;;;21.01;42.24;101914.70;1698792;81;21088;-77
2022/10/06 02:30:42;;;;;;;2.77;1.82;;;;;;;21.00;42.23;101918.61;1736212;82;21890;-75
2022/10/06 02:33:08;;;;;;;3.47;2.33;;;;;;;21.01;42.21;101913.88;1736209;82;21049;-75
2022/10/06 02:35:35;;;;;;;2.90;2.12;;;;;;;21.01;42.17;101916.64;1707634;82;21178;-76
2022/10/06 02:38:01;;;;;;;4.80;2.20;;;;;;;21.01;42.15;101916.09;1736293;82;21108;-75
2022/10/06 02:40:27;;;;;;;5.20;2.55;;;;;;;20.99;42.14;101914.19;1736305;82;21080;-76
2022/10/06 02:42:53;;;;;;;3.98;2.00;;;;;;;20.99;42.14;101918.34;1736032;82;21034;-75
2022/10/06 02:45:20;;;;;;;4.15;2.37;;;;;;;20.99;42.13;101919.72;1736619;82;21080;-75
2022/10/06 02:47:46;;;;;;;2.83;2.00;;;;;;;20.99;42.10;101918.34;1721194;82;21804;-75
2022/10/06 02:50:12;;;;;;;4.05;2.42;;;;;;;20.99;42.08;101923.88;1712725;83;21655;-75
2022/10/06 02:52:41;;;;;;;4.75;2.50;;;;;;;20.99;42.08;101914.19;1681466;83;21480;-76
2022/10/06 02:55:08;;;;;;;3.20;2.20;;;;;;;21.00;42.07;101921.93;1713008;82;21135;-75
2022/10/06 02:57:34;;;;;;;3.85;2.25;;;;;;;20.97;42.03;101920.00;1712821;83;21048;-75
2022/10/06 03:00:00;;;;;;;4.22;2.40;;;;;;;20.97;42.02;101915.85;1713175;83;21112;-75
2022/10/06 03:02:29;;;;;;;5.10;2.50;;;;;;;20.96;41.99;101911.43;1659943;83;21093;-75
2022/10/06 03:04:55;;;;;;;3.27;1.95;;;;;;;20.96;42.00;101910.05;1724431;82;21072;-77
2022/10/06 03:07:22;;;;;;;3.75;2.22;;;;;;;20.97;41.98;101910.32;1736250;82;21016;-75
2022/10/06 03:09:48;;;;;;;3.87;2.00;;;;;;;20.97;41.99;101915.02;1736493;82;22226;-76
2022/10/06 03:12:14;;;;;;;4.83;2.58;;;;;;;20.96;41.97;101911.43;1733399;82;22057;-75
2022/10/06 03:14:41;;;;;;;3.33;2.30;;;;;;;20.96;41.96;101910.05;1709310;82;21156;-75
2022/10/06 03:17:09;;;;;;;3.17;2.35;;;;;;;20.97;41.96;101915.02;1731231;82;21067;-75
2022/10/06 03:19:36;;;;;;;3.85;2.17;;;;;;;20.96;41.93;101911.43;1730616;82;21100;-76
2022/10/06 03:22:09;;;;;;;3.40;2.17;;;;;;;20.97;41.95;101908.94;1730487;82;21084;-75
2022/10/06 03:24:38;;;;;;;3.75;2.33;;;;;;;20.97;41.91;101908.94;1674422;84;21243;-76
2022/10/06 03:27:05;;;;;;;3.83;2.20;;;;;;;20.96;41.90;101919.73;1699217;83;20937;-75
2022/10/06 03:29:31;;;;;;;5.03;2.20;;;;;;;20.96;41.90;101923.88;1707737;84;21374;-75
2022/10/06 03:31:57;;;;;;;4.92;2.47;;;;;;;20.95;41.89;101920.05;1707522;84;21127;-75
2022/10/06 03:34:24;;;;;;;2.98;1.98;;;;;;;20.95;41.88;101918.66;1707410;83;21651;-75
2022/10/06 03:36:56;;;;;;;3.60;2.40;;;;;;;20.96;41.90;101918.93;1707692;84;21227;-75
2022/10/06 03:39:22;;;;;;;3.83;2.10;;;;;;;20.96;41.90;101921.70;1707846;83;21081;-76
2022/10/06 03:41:48;;;;;;;2.75;1.98;;;;;;;20.95;41.90;101913.12;1694507;83;21648;-76
2022/10/06 03:44:15;;;;;;;2.83;2.12;;;;;;;20.95;41.91;101915.34;1623712;86;21067;-75
2022/10/06 03:46:41;;;;;;;4.03;2.33;;;;;;;20.96;41.90;101914.78;1713048;83;21131;-75
2022/10/06 03:49:08;;;;;;;6.37;2.70;;;;;;;20.95;41.91;101918.11;1693135;83;21125;-75
2022/10/06 03:51:37;;;;;;;3.00;2.27;;;;;;;20.96;41.91;101923.08;1681507;83;21586;-75
2022/10/06 03:54:03;;;;;;;5.00;2.55;;;;;;;20.95;41.90;101915.34;1653352;86;21629;-75
2022/10/06 03:56:35;;;;;;;5.22;3.00;;;;;;;20.95;41.82;101913.12;1712643;83;21116;-75
2022/10/06 03:59:05;;;;;;;4.78;3.12;;;;;;;20.93;41.71;101912.02;1713076;83;21582;-76
2022/10/06 04:01:41;;;;;;;5.75;3.12;;;;;;;20.89;41.65;101915.11;1649277;85;21479;-76
2022/10/06 04:04:08;;;;;;;7.12;3.60;;;;;;;20.88;41.59;101918.98;1650419;86;21517;-75
2022/10/06 04:06:37;;;;;;;6.10;3.37;;;;;;;20.86;41.54;101917.09;1650807;86;21104;-75
2022/10/06 04:09:06;;;;;;;7.58;3.70;;;;;;;20.84;41.48;101910.19;1652049;84;21057;-75
2022/10/06 04:11:35;;;;;;;6.65;3.62;;;;;;;20.83;41.42;101905.80;1655375;84;21149;-75
2022/10/06 04:14:06;;;;;;;9.23;3.90;;;;;;;20.81;41.33;101902.48;1683802;84;21298;-76
2022/10/06 04:16:36;;;;;;;8.40;3.80;;;;;;;20.77;41.23;101904.19;1683904;85;21084;-75
2022/10/06 04:19:06;;;;;;;8.53;4.30;;;;;;;20.70;41.10;101899.01;1683687;85;21092;-75
2022/10/06 04:21:37;;;;;;;8.10;4.30;;;;;;;20.63;41.05;101899.06;1684022;84;21087;-75
2022/10/06 04:24:09;;;;;;;10.65;4.87;;;;;;;20.56;41.02;101894.44;1684004;84;21083;-76
2022/10/06 04:26:43;;;;;;;7.33;4.30;;;;;;;20.48;40.97;101900.87;1683688;84;21128;-75
2022/10/06 04:29:09;;;;;;;12.18;4.87;;;;;;;20.43;40.92;101905.06;1683565;85;21092;-77
2022/10/06 04:31:37;;;;;;;7.97;4.53;;;;;;;20.37;40.87;101905.38;1666447;84;21155;-76
2022/10/06 04:34:05;;;;;;;8.35;4.60;;;;;;;20.34;40.80;101908.73;1679964;83;22170;-75
2022/10/06 04:36:33;;;;;;;8.75;4.87;;;;;;;20.28;40.78;101911.25;1676137;83;21080;-76
2022/10/06 04:39:02;;;;;;;5.92;4.15;;;;;;;20.24;40.78;101914.33;1675849;83;21893;-75
2022/10/06 04:41:33;;;;;;;11.50;4.95;;;;;;;20.21;40.75;101908.80;1678687;83;21059;-76
2022/10/06 04:44:00;;;;;;;16.48;5.17;;;;;;;20.16;40.77;101913.53;1680360;83;21218;-76
2022/10/06 04:46:27;;;;;;;10.13;5.42;;;;;;;20.13;40.71;101906.66;1674340;83;21661;-77
2022/10/06 04:48:53;;;;;;;8.95;4.70;;;;;;;20.10;40.73;101912.77;1675662;83;21075;-76
2022/10/06 04:51:23;;;;;;;13.55;5.03;;;;;;;20.04;40.73;101909.20;1675676;82;21220;-77
2022/10/06 04:53:49;;;;;;;10.63;4.85;;;;;;;20.01;40.69;101913.94;1646502;84;21079;-76
2022/10/06 04:56:28;;;;;;;17.00;5.03;;;;;;;19.96;40.80;101906.23;1638736;84;21103;-76
2022/10/06 04:58:55;;;;;;;14.65;5.17;;;;;;;19.94;40.81;101907.09;1650070;85;21100;-78
2022/10/06 05:01:27;;;;;;;13.85;4.80;;;;;;;19.90;40.85;101905.42;1677630;83;21107;-77
2022/10/06 05:03:56;;;;;;;21.15;6.15;;;;;;;19.90;40.87;101906.81;1674357;81;21131;-78
2022/10/06 05:06:30;;;;;;;16.45;5.22;;;;;;;19.84;40.84;101899.69;1661790;83;21682;-80
2022/10/06 05:09:04;;;;;;;16.85;5.75;;;;;;;19.83;40.94;101900.79;1672894;83;21099;-78
2022/10/06 05:11:32;;;;;;;20.52;5.42;;;;;;;19.81;40.97;101909.10;1674050;82;21904;-78
2022/10/06 05:13:58;;;;;;;14.33;5.92;;;;;;;19.79;40.98;101908.00;1696191;82;21114;-75
2022/10/06 05:16:26;;;;;;;11.55;5.53;;;;;;;19.75;41.07;101906.92;1696449;82;21622;-76
2022/10/06 05:18:53;;;;;;;17.10;5.22;;;;;;;19.72;41.12;101910.81;1699585;82;21081;-76
2022/10/06 05:21:25;;;;;;;20.68;5.83;;;;;;;19.75;41.18;101912.44;1703465;82;21797;-76
2022/10/06 05:23:52;;;;;;;9.93;4.95;;;;;;;19.78;41.15;101924.28;1669161;84;21742;-77
2022/10/06 05:26:28;;;;;;;12.75;5.25;;;;;;;19.82;41.08;101917.08;1665611;85;21103;-77
2022/10/06 05:28:54;;;;;;;9.53;5.90;;;;;;;19.83;41.05;101917.36;1704634;82;21517;-75
2022/10/06 05:31:26;;;;;;;18.52;5.60;;;;;;;19.82;41.02;101931.44;1702668;82;20943;-76
2022/10/06 05:33:54;;;;;;;12.58;5.45;;;;;;;19.82;41.03;101933.65;1707380;83;21051;-76
2022/10/06 05:36:22;;;;;;;12.05;5.72;;;;;;;19.82;41.03;101935.58;1686705;83;21140;-75
2022/10/06 05:38:49;;;;;;;14.95;5.53;;;;;;;19.81;41.01;101930.64;1709956;82;22205;-76
2022/10/06 05:41:21;;;;;;;9.28;4.47;;;;;;;19.84;41.05;101933.38;1702077;82;21849;-76
2022/10/06 05:43:47;;;;;;;8.68;4.75;;;;;;;19.84;41.11;101924.54;1709937;82;21144;-75
2022/10/06 05:46:18;;;;;;;13.00;5.40;;;;;;;19.88;41.25;101930.31;1706965;82;21302;-73
2022/10/06 05:48:48;;;;;;;9.73;5.40;;;;;;;19.91;41.31;101920.89;1700662;82;21999;-79
2022/10/06 05:51:16;;;;;;;14.10;5.55;;;;;;;19.93;41.36;101926.14;1702457;82;21175;-81
2022/10/06 05:53:43;;;;;;;15.25;5.28;;;;;;;19.92;41.39;101933.60;1702699;82;21147;-76
2022/10/06 05:56:17;;;;;;;17.70;5.83;;;;;;;19.90;41.51;101933.05;1668231;84;21168;-79
2022/10/06 05:58:46;;;;;;;15.53;5.47;;;;;;;19.85;41.49;101930.89;1708099;82;21123;-78
2022/10/06 06:01:21;;;;;;;10.88;5.58;;;;;;;19.83;41.55;101929.78;1657956;85;21087;-79
2022/10/06 06:03:53;;;;;;;19.65;7.03;;;;;;;19.83;41.56;101931.17;1626116;85;21105;-79
2022/10/06 06:06:24;;;;;;;21.87;6.67;;;;;;;19.81;41.67;101934.78;1698706;82;21584;-79
2022/10/06 06:09:11;;;;;;;;;;;;;;;19.85;41.76;101935.03;1703753;82;21056;-78
2022/10/06 06:11:40;;;;;;;13.93;6.25;;;;;;;19.85;41.81;101931.72;1701702;83;20203;-77
2022/10/06 06:14:12;;;;;;;9.98;5.67;;;;;;;19.85;41.79;101935.86;1662542;82;21090;-81
2022/10/06 06:16:41;;;;;;;23.77;6.70;;;;;;;19.83;41.73;101938.63;1673770;83;21446;-79
2022/10/06 06:19:11;;;;;;;14.63;6.43;;;;;;;19.82;41.77;101944.70;1627221;85;21335;-78
2022/10/06 06:21:39;;;;;;;8.53;5.00;;;;;;;19.85;41.77;101947.46;1633022;85;21151;-80
2022/10/06 06:24:06;;;;;;;14.78;5.95;;;;;;;19.88;41.83;101944.12;1588847;87;21147;-80
2022/10/06 06:26:35;;;;;;;8.20;5.22;;;;;;;19.90;41.86;101948.23;1650416;82;21090;-82
2022/10/06 06:29:03;;;;;;;11.55;5.33;;;;;;;19.93;41.85;101948.23;1649999;84;21095;-80
2022/10/06 06:31:33;;;;;;;10.65;5.30;;;;;;;19.93;41.84;101953.21;1638445;84;21155;-81
2022/10/06 06:34:01;;;;;;;11.28;5.40;;;;;;;19.94;41.69;101949.31;1678192;82;21147;-80
2022/10/06 06:36:34;;;;;;;18.32;5.92;;;;;;;19.92;41.70;101955.70;1640356;83;21111;-81
2022/10/06 06:39:04;;;;;;;18.60;6.05;;;;;;;19.91;41.72;101954.04;1653375;82;21135;-79
2022/10/06 06:41:33;;;;;;;15.72;6.00;;;;;;;19.94;41.72;101952.66;1669941;83;21095;-80
2022/10/06 06:44:01;;;;;;;11.85;6.15;;;;;;;19.96;41.69;101955.39;1653961;83;21096;-79
2022/10/06 06:46:30;;;;;;;13.98;5.87;;;;;;;19.97;41.71;101957.05;1658815;83;21186;-77
2022/10/06 06:49:02;;;;;;;17.73;5.65;;;;;;;19.93;41.71;101958.73;1666894;84;21119;-76
2022/10/06 06:51:28;;;;;;;37.03;6.90;;;;;;;19.92;41.99;101965.36;1677944;83;21075;-78
2022/10/06 06:54:01;;;;;;;33.60;6.47;;;;;;;19.91;42.30;101969.23;1677366;83;21464;-77
2022/10/06 06:56:26;;;;;;;29.90;5.83;;;;;;;19.93;42.35;101962.88;1673808;83;21351;-75
2022/10/06 06:58:53;;;;;;;35.10;6.83;;;;;;;19.91;42.46;101971.98;1656565;83;21087;-78
2022/10/06 07:01:21;;;;;;;33.92;7.35;;;;;;;19.86;42.45;101970.63;1671356;83;21613;-77
2022/10/06 07:03:53;;;;;;;39.25;5.75;;;;;;;19.83;42.65;101973.97;1671301;82;21646;-77
2022/10/06 07:06:19;;;;;;;21.77;5.47;;;;;;;19.79;42.65;101975.65;1679147;83;21698;-80
2022/10/06 07:08:47;;;;;;;22.15;4.80;;;;;;;19.76;42.85;101969.33;1676185;83;21265;-79
2022/10/06 07:11:29;;;;;;;14.30;4.95;;;;;;;19.76;42.94;101965.19;1647081;84;21100;-81
2022/10/06 07:13:59;;;;;;;17.85;5.42;;;;;;;19.77;42.85;101966.02;1669290;84;21154;-80
2022/10/06 07:27:31;;;;;;;8.35;4.47;;;;;;;19.69;42.76;101968.78;1653582;84;21186;-81
2022/10/06 07:29:58;;;;;;;10.78;5.00;;;;;;;19.67;42.67;101969.64;1676377;83;21622;-79
2022/10/06 07:32:26;;;;;;;9.55;4.78;;;;;;;19.66;42.62;101967.16;1647869;82;21055;-81
2022/10/06 07:34:53;;;;;;;11.48;4.75;;;;;;;19.69;42.67;101966.02;1672338;83;21890;-81
2022/10/06 07:37:19;;;;;;;13.32;5.37;;;;;;;19.73;42.65;101965.73;1679791;82;21416;-79
2022/10/06 07:39:48;;;;;;;9.23;4.78;;;;;;;19.77;42.64;101968.77;1673761;83;22318;-82
2022/10/06 07:42:14;;;;;;;12.73;5.33;;;;;;;19.81;42.61;101971.23;1641816;84;21191;-81
2022/10/06 07:44:41;;;;;;;24.35;5.22;;;;;;;19.83;42.61;101976.73;1671486;82;21160;-80
2022/10/06 07:47:07;;;;;;;23.12;5.47;;;;;;;19.86;42.66;101967.88;1676199;82;21147;-78
2022/10/06 07:49:34;;;;;;;29.95;5.35;;;;;;;19.91;42.77;101975.30;1670900;83;21655;-78
2022/10/06 07:52:02;;;;;;;33.88;6.60;;;;;;;19.94;42.89;101974.17;1648244;83;21236;-76
2022/10/06 07:54:29;;;;;;;25.10;6.08;;;;;;;19.96;43.20;101971.97;1670531;82;21127;-79
2022/10/06 07:56:55;;;;;;;28.23;5.85;;;;;;;20.00;43.34;101967.52;1644817;83;21145;-77
2022/10/06 07:59:21;;;;;;;38.42;6.40;;;;;;;20.04;43.59;101968.60;1678411;81;21127;-76
2022/10/06 08:01:50;;;;;;;31.35;5.90;;;;;;;20.06;43.55;101965.56;1670131;82;21611;-83
2022/10/06 08:04:16;;;;;;;25.95;6.08;;;;;;;20.11;43.69;101969.68;1676227;83;21059;-81
2022/10/06 08:06:43;;;;;;;31.35;5.90;;;;;;;20.13;43.71;101967.44;1672983;83;21051;-78
2022/10/06 08:09:12;;;;;;;21.87;4.97;;;;;;;20.16;43.74;101967.41;1663626;83;21158;-79
2022/10/06 08:11:39;;;;;;;19.32;6.15;;;;;;;20.17;43.48;101963.55;1674473;82;21680;-82
2022/10/06 08:14:06;;;;;;;20.15;7.42;;;;;;;20.16;43.42;101958.57;1693771;82;21092;-79
2022/10/06 08:16:32;;;;;;;14.45;5.53;;;;;;;20.17;43.54;101960.23;1714721;82;21088;-80
2022/10/06 08:18:59;;;;;;;12.18;5.45;;;;;;;20.18;43.36;101959.67;1719447;81;21560;-80
2022/10/06 08:21:27;;;;;;;12.47;4.90;;;;;;;20.16;43.28;101957.19;1720103;82;21112;-81
2022/10/06 08:23:54;;;;;;;14.15;5.00;;;;;;;20.18;43.23;101954.15;1712437;83;21831;-80
2022/10/06 08:26:21;;;;;;;11.22;4.37;;;;;;;20.18;43.12;101957.74;1710832;81;22231;-81
2022/10/06 08:28:50;;;;;;;13.58;4.92;;;;;;;20.16;42.97;101956.36;1717960;82;21100;-82
2022/10/06 08:31:19;;;;;;;7.47;4.35;;;;;;;20.14;42.84;101948.37;1714461;82;21097;-79
2022/10/06 08:33:52;;;;;;;10.15;3.77;;;;;;;20.16;42.80;101946.69;1708136;81;21095;-81
2022/10/06 08:36:19;;;;;;;14.05;4.60;;;;;;;20.14;42.70;101942.02;1710507;81;21678;-81
2022/10/06 08:38:49;;;;;;;9.85;4.70;;;;;;;20.14;43.15;101944.78;1710607;81;21128;-79
2022/10/06 08:41:22;;;;;;;18.75;5.10;;;;;;;20.18;43.34;101940.34;1704070;82;21099;-78
2022/10/06 08:44:06;;;;;;;19.95;4.70;;;;;;;20.21;43.73;101945.28;1716717;82;21211;-80
2022/10/06 08:46:40;;;;;;;19.70;3.90;;;;;;;20.22;43.37;101942.79;1641622;85;21311;-77
2022/10/06 08:49:07;;;;;;;20.80;4.05;;;;;;;20.23;43.47;101944.45;1682265;83;21137;-77
2022/10/06 08:52:03;;;;;;;17.60;3.65;;;;;;;20.25;43.29;101941.66;1683856;83;21076;-76
2022/10/06 08:54:37;;;;;;;13.53;3.55;;;;;;;20.25;43.13;101941.66;1646262;84;21482;-77
2022/10/06 08:57:23;;;;;;;8.38;3.05;;;;;;;20.25;43.20;101936.13;1635614;83;21100;-77
2022/10/06 08:59:52;;;;;;;10.15;2.95;;;;;;;20.27;43.13;101935.84;1658417;83;21080;-76
2022/10/06 09:02:33;;;;;;;11.18;3.20;;;;;;;20.25;42.81;101938.06;1639057;84;40332;-78
2022/10/06 09:05:06;;;;;;;17.00;3.62;;;;;;;20.25;42.81;101944.97;1624933;86;21759;-77
2022/10/06 09:08:11;;;;;;;6.97;2.80;;;;;;;20.25;42.72;101941.66;1651353;84;21180;-77
2022/10/06 09:11:05;;;;;;;7.30;2.80;;;;;;;20.25;42.60;101940.82;1657367;85;21057;-76
2022/10/06 09:13:51;;;;;;;5.80;3.15;;;;;;;20.25;42.62;101939.44;1634913;86;21139;-77
2022/10/06 09:16:19;;;;;;;6.55;2.90;;;;;;;20.26;42.49;101943.31;1650748;85;21171;-76
2022/10/06 09:18:54;;;;;;;22.10;3.60;;;;;;;20.26;42.37;101943.31;1633523;86;21066;-77
2022/10/06 09:21:29;;;;;;;8.45;3.05;;;;;;;20.28;42.38;101936.13;1690210;82;21184;-77
2022/10/06 09:24:01;;;;;;;7.80;2.87;;;;;;;20.29;42.51;101933.09;1675363;83;21535;-77
2022/10/06 09:26:35;;;;;;;13.88;3.20;;;;;;;20.32;42.43;101933.08;1661648;84;21009;-77
2022/10/06 09:29:13;;;;;;;12.80;3.20;;;;;;;20.34;42.31;101921.16;1664950;83;21468;-76
2022/10/06 09:31:49;;;;;;;6.08;3.17;;;;;;;20.34;42.26;101923.93;1666198;84;21021;-77
2022/10/06 09:34:44;;;;;;;13.10;3.67;;;;;;;20.38;42.21;101923.62;1662422;84;21758;-77
2022/10/06 09:37:15;;;;;;;11.63;3.77;;;;;;;20.39;42.27;101917.81;1700844;83;20985;-77
2022/10/06 09:39:48;;;;;;;15.70;3.90;;;;;;;20.40;42.31;101903.44;1691564;83;20913;-76
2022/10/06 09:42:28;;;;;;;7.85;2.87;;;;;;;20.41;42.39;101906.48;1653231;83;21036;-78
2022/10/06 09:45:01;;;;;;;7.50;3.12;;;;;;;20.45;42.33;101911.11;1664231;83;20914;-77
2022/10/06 09:47:43;;;;;;;6.00;2.72;;;;;;;20.47;42.20;101908.06;1670667;83;20996;-77
2022/10/06 09:50:19;;;;;;;10.93;2.85;;;;;;;20.49;42.07;101901.15;1695785;83;21147;-79
2022/10/06 09:53:04;;;;;;;11.28;2.75;;;;;;;20.50;42.01;101903.33;1682884;83;21772;-78
2022/10/06 09:55:39;;;;;;;8.30;2.40;;;;;;;20.51;42.00;101889.78;1702465;83;22859;-79
2022/10/06 09:58:33;;;;;;;7.45;2.05;;;;;;;20.53;42.00;101893.64;1685766;82;21080;-78
2022/10/06 10:01:00;;;;;;;8.80;1.87;;;;;;;20.56;42.05;101892.50;1657880;84;21160;-78
2022/10/06 10:03:43;;;;;;;18.17;3.85;;;;;;;20.59;41.98;101888.31;1681030;83;21709;-77
2022/10/06 10:06:22;;;;;;;14.73;2.98;;;;;;;20.61;42.04;101891.63;1688824;83;21165;-78
2022/10/06 10:08:48;;;;;;;16.25;3.08;;;;;;;20.61;42.15;101885.55;1686748;83;21293;-78
2022/10/06 10:14:16;;;;;;;19.10;3.40;;;;;;;20.65;42.30;101887.99;1675135;83;21115;-78
2022/10/06 10:16:43;;;;;;;11.48;3.08;;;;;;;20.68;42.38;101887.95;1709423;82;21080;-78
2022/10/06 10:19:31;;;;;;;11.12;2.72;;;;;;;20.70;42.46;101880.20;1716756;82;21207;-78
2022/10/06 10:21:58;;;;;;;9.43;2.77;;;;;;;20.69;42.42;101879.38;1700553;82;21937;-78
2022/10/06 10:24:30;;;;;;;12.93;2.70;;;;;;;20.69;42.47;101865.55;1708019;82;21903;-78
2022/10/06 10:27:03;;;;;;;10.03;3.92;;;;;;;20.70;42.52;101858.91;1721948;82;21056;-76
2022/10/06 10:29:41;;;;;;;9.05;5.37;;;;;;;20.71;42.46;101865.27;1711503;83;21078;-77
2022/10/06 10:32:16;;;;;;;7.17;3.98;;;;;;;20.72;42.58;101863.58;1702056;82;21229;-77
2022/10/06 10:35:06;;;;;;;23.38;4.22;;;;;;;20.72;42.67;101858.05;1711250;82;21196;-77
2022/10/06 10:37:52;;;;;;;5.92;3.52;;;;;;;20.74;42.66;101851.67;1709448;82;21077;-77
2022/10/06 10:40:29;;;;;;;11.22;3.20;;;;;;;20.75;42.63;101855.27;1711001;83;21626;-77
2022/10/06 10:43:28;;;;;;;6.30;2.72;;;;;;;20.76;42.63;101852.19;1708647;82;21267;-76
2022/10/06 10:46:22;;;;;;;6.22;2.60;;;;;;;20.76;42.71;101835.59;1653479;84;21072;-77
2022/10/06 10:49:00;;;;;;;9.45;2.70;;;;;;;20.78;42.88;101831.99;1645013;86;21142;-76
2022/10/06 10:51:33;;;;;;;8.45;3.80;;;;;;;20.81;42.67;101837.48;1648508;86;21179;-77
2022/10/06 10:54:07;;;;;;;7.92;3.27;;;;;;;20.80;42.70;101837.20;1651606;86;21132;-76
2022/10/06 10:56:34;;;;;;;15.48;3.05;;;;;;;20.81;42.72;101834.72;1673522;85;21177;-79
2022/10/06 10:59:07;;;;;;;13.98;2.70;;;;;;;20.85;42.74;101839.37;1709593;83;21172;-79
2022/10/06 11:01:42;;;;;;;10.80;2.62;;;;;;;20.89;42.69;101833.51;1712559;82;21100;-79
2022/10/06 11:04:11;;;;;;;16.95;3.00;;;;;;;20.93;42.56;101822.67;1682839;83;21064;-80
2022/10/06 11:07:07;;;;;;;17.40;4.05;;;;;;;20.94;42.58;101814.09;1714123;83;21112;-81
2022/10/06 11:09:45;;;;;;;19.05;3.50;;;;;;;20.94;42.65;101822.39;1721057;82;21729;-79
2022/10/06 11:13:00;;;;;;;16.35;4.15;;;;;;;20.96;42.75;101824.28;1694853;83;21101;-79
2022/10/06 11:15:54;;;;;;;26.02;4.58;;;;;;;20.97;42.80;101823.73;1711339;82;21150;-80
2022/10/06 11:18:40;;;;;;;15.38;3.90;;;;;;;20.97;42.77;101825.94;1719693;82;21085;-83
2022/10/06 11:21:24;;;;;;;11.33;4.35;;;;;;;20.95;42.65;101814.36;1679607;83;21045;-79
2022/10/06 11:24:00;;;;;;;18.70;3.45;;;;;;;20.95;42.62;101808.00;1715992;81;21116;-81
2022/10/06 11:26:42;;;;;;;10.95;2.90;;;;;;;20.92;42.61;101806.63;1719169;81;21109;-82
2022/10/06 11:29:17;;;;;;;9.55;3.50;;;;;;;20.91;42.64;101805.56;1689293;83;21398;-81
2022/10/06 11:32:05;;;;;;;10.82;3.47;;;;;;;20.92;42.71;101796.13;1702035;83;21084;-81
2022/10/06 11:34:32;;;;;;;11.12;2.98;;;;;;;20.92;42.82;101791.97;1700366;84;21088;-81
2022/10/06 11:37:36;;;;;;;8.83;3.20;;;;;;;20.93;42.88;101791.69;1713529;82;21628;-81
2022/10/06 11:40:24;;;;;;;8.78;3.33;;;;;;;20.93;42.83;101790.30;1710904;82;21093;-79
2022/10/06 11:43:17;;;;;;;8.93;3.75;;;;;;;20.93;42.75;101781.17;1691872;83;21793;-83
2022/10/06 11:45:52;;;;;;;12.98;3.30;;;;;;;20.93;42.67;101788.92;1689064;83;21395;-80
2022/10/06 11:48:29;;;;;;;6.62;3.25;;;;;;;20.91;42.64;101785.64;1705844;81;21132;-83
2022/10/06 11:51:18;;;;;;;12.53;3.20;;;;;;;20.91;42.75;101790.34;1708875;82;22012;-81
2022/10/06 11:53:46;;;;;;;20.65;2.85;;;;;;;20.91;42.81;101789.80;1668066;83;21152;-80
2022/10/06 11:56:21;;;;;;;10.75;2.55;;;;;;;20.94;42.87;101785.05;1649823;85;21187;-82